createdAt,value
2023-04-27T00:02:22.854Z,3.97
2023-04-27T00:05:25.168Z,3.79
2023-04-27T00:08:29.852Z,3.39
2023-04-27T00:11:31.792Z,3.23
2023-04-27T00:14:33.887Z,3.11
2023-04-27T00:17:36.211Z,3.03
2023-04-27T00:20:38.435Z,3.04
2023-04-27T00:23:42.352Z,3.47
2023-04-27T00:26:45.451Z,3.59
2023-04-27T00:29:48.975Z,3.80
2023-04-27T00:32:52.563Z,3.88
2023-04-27T00:35:54.590Z,3.82
2023-04-27T00:39:02.422Z,3.66
2023-04-27T00:42:04.578Z,3.43
2023-04-27T00:45:09.030Z,3.12
2023-04-27T00:48:11.704Z,3.11
2023-04-27T00:51:19.276Z,3.07
2023-04-27T00:54:25.836Z,3.14
2023-04-27T00:57:28.623Z,3.28
2023-04-27T01:00:30.580Z,3.31
2023-04-27T01:03:33.297Z,3.36
2023-04-27T01:06:35.136Z,3.51
2023-04-27T01:09:41.726Z,3.59
2023-04-27T01:12:46.056Z,3.79
2023-04-27T01:15:48.218Z,3.82
2023-04-27T01:18:52.367Z,3.53
2023-04-27T01:21:54.141Z,3.54
2023-04-27T01:25:00.048Z,3.66
2023-04-27T01:28:02.833Z,3.65
2023-04-27T01:31:04.750Z,3.44
2023-04-27T01:34:08.004Z,3.41
2023-04-27T01:37:12.688Z,3.48
2023-04-27T01:40:17.286Z,3.61
2023-04-27T01:43:21.751Z,3.57
2023-04-27T01:46:24.852Z,3.74
2023-04-27T01:49:29.669Z,3.58
2023-04-27T01:52:31.837Z,3.48
2023-04-27T01:55:35.002Z,3.47
2023-04-27T01:58:38.214Z,3.66
2023-04-27T02:01:40.252Z,3.71
2023-04-27T02:04:43.837Z,3.52
2023-04-27T02:07:45.655Z,3.48
2023-04-27T02:10:48.854Z,3.41
2023-04-27T02:13:51.745Z,3.31
2023-04-27T02:16:55.945Z,3.29
2023-04-27T02:19:57.914Z,3.46
2023-04-27T02:23:01.821Z,3.53
2023-04-27T02:26:05.161Z,3.65
2023-04-27T02:29:07.444Z,3.78
2023-04-27T02:32:10.951Z,3.94
2023-04-27T02:35:12.662Z,4.14
2023-04-27T02:38:15.996Z,4.26
2023-04-27T02:41:19.369Z,4.38
2023-04-27T02:44:23.097Z,4.37
2023-04-27T02:47:26.224Z,4.42
2023-04-27T02:50:31.742Z,4.26
2023-04-27T02:53:34.666Z,4.24
2023-04-27T02:56:37.798Z,4.08
2023-04-27T02:59:39.822Z,4.01
2023-04-27T03:02:44.476Z,3.92
2023-04-27T03:05:47.712Z,3.94
2023-04-27T03:08:49.840Z,3.83
2023-04-27T03:11:54.256Z,3.97
2023-04-27T03:14:56.071Z,4.14
2023-04-27T03:17:58.028Z,3.90
2023-04-27T03:21:08.457Z,3.74
2023-04-27T03:24:10.665Z,3.89
2023-04-27T03:27:15.268Z,4.08
2023-04-27T03:30:17.396Z,4.14
2023-04-27T03:33:19.656Z,4.23
2023-04-27T03:36:23.855Z,4.33
2023-04-27T03:39:28.905Z,4.39
2023-04-27T03:42:33.338Z,4.47
2023-04-27T03:45:36.619Z,4.47
2023-04-27T03:48:38.538Z,4.51
2023-04-27T03:51:41.222Z,4.46
2023-04-27T03:54:43.081Z,4.52
2023-04-27T03:57:50.203Z,4.56
2023-04-27T04:00:52.986Z,4.58
2023-04-27T04:03:54.897Z,4.50
2023-04-27T04:06:57.306Z,4.50
2023-04-27T04:09:59.089Z,4.47
2023-04-27T04:13:04.920Z,4.37
2023-04-27T04:16:09.183Z,4.07
2023-04-27T04:19:11.027Z,4.04
2023-04-27T04:22:12.857Z,4.08
2023-04-27T04:25:17.240Z,4.15
2023-04-27T04:28:20.739Z,4.30
2023-04-27T04:31:22.627Z,4.26
2023-04-27T04:34:26.018Z,4.40
2023-04-27T04:37:28.267Z,4.38
2023-04-27T04:40:33.736Z,4.43
2023-04-27T04:43:37.498Z,4.38
2023-04-27T04:46:39.803Z,4.37
2023-04-27T04:49:45.254Z,4.42
2023-04-27T04:52:47.039Z,4.47
2023-04-27T04:55:50.382Z,4.48
2023-04-27T04:58:54.513Z,4.51
2023-04-27T05:01:56.503Z,4.55
2023-04-27T05:04:59.464Z,4.55
2023-04-27T05:08:02.483Z,4.56
2023-04-27T05:11:04.760Z,4.56
2023-04-27T05:14:08.671Z,4.53
2023-04-27T05:17:12.945Z,4.63
2023-04-27T05:20:15.968Z,4.62
2023-04-27T05:23:19.120Z,4.64
2023-04-27T05:26:21.076Z,4.54
2023-04-27T05:29:27.021Z,4.60
2023-04-27T05:32:29.310Z,4.72
2023-04-27T05:35:31.770Z,4.79
2023-04-27T05:38:36.034Z,4.82
2023-04-27T05:41:38.128Z,4.88
2023-04-27T05:44:42.766Z,4.94
2023-04-27T05:47:45.367Z,4.98
2023-04-27T05:50:49.626Z,5.07
2023-04-27T05:53:52.883Z,5.10
2023-04-27T05:56:55.019Z,5.15
2023-04-27T05:59:58.280Z,5.25
2023-04-27T06:03:00.954Z,5.29
2023-04-27T06:06:03.862Z,5.40
2023-04-27T06:09:05.641Z,5.42
2023-04-27T06:12:08.622Z,5.50
2023-04-27T06:15:12.106Z,5.52
2023-04-27T06:18:15.114Z,5.56
2023-04-27T06:21:17.788Z,5.59
2023-04-27T06:24:19.876Z,5.68
2023-04-27T06:27:21.705Z,5.75
2023-04-27T06:30:29.708Z,5.74
2023-04-27T06:33:34.137Z,5.80
2023-04-27T06:36:36.219Z,5.89
2023-04-27T06:39:38.084Z,5.87
2023-04-27T06:42:40.166Z,5.90
2023-04-27T06:45:43.468Z,5.96
2023-04-27T06:48:45.302Z,6.05
2023-04-27T06:51:48.198Z,6.01
2023-04-27T06:54:50.944Z,6.04
2023-04-27T06:57:53.004Z,6.16
2023-04-27T07:00:56.162Z,6.14
2023-04-27T07:04:00.778Z,6.18
2023-04-27T07:07:04.094Z,6.28
2023-04-27T07:10:08.280Z,6.28
2023-04-27T07:13:10.925Z,6.33
2023-04-27T07:16:15.514Z,6.43
2023-04-27T07:19:17.430Z,6.51
2023-04-27T07:22:19.273Z,6.59
2023-04-27T07:25:21.761Z,6.68
2023-04-27T07:28:23.568Z,6.78
2023-04-27T07:31:30.197Z,6.95
2023-04-27T07:34:41.231Z,7.01
2023-04-27T07:37:50.489Z,7.10
2023-04-27T07:40:52.576Z,7.15
2023-04-27T07:43:54.362Z,7.19
2023-04-27T07:46:59.112Z,7.29
2023-04-27T07:50:05.075Z,7.37
2023-04-27T07:53:07.179Z,7.45
2023-04-27T07:56:10.298Z,7.55
2023-04-27T07:59:12.416Z,7.61
2023-04-27T08:02:19.849Z,7.76
2023-04-27T08:05:23.175Z,7.80
2023-04-27T08:08:25.540Z,7.85
2023-04-27T08:11:27.804Z,7.90
2023-04-27T08:14:29.691Z,7.93
2023-04-27T08:17:32.942Z,7.97
2023-04-27T08:20:34.785Z,8.09
2023-04-27T08:23:37.052Z,8.27
2023-04-27T08:26:38.832Z,8.29
2023-04-27T08:29:46.630Z,8.32
2023-04-27T08:32:49.953Z,8.41
2023-04-27T08:35:54.431Z,8.56
2023-04-27T08:38:57.808Z,8.51
2023-04-27T08:41:59.619Z,8.56
2023-04-27T08:45:02.029Z,8.61
2023-04-27T08:48:08.958Z,8.69
2023-04-27T08:51:14.792Z,8.79
2023-04-27T08:54:17.713Z,8.88
2023-04-27T08:57:19.529Z,8.95
2023-04-27T09:00:27.118Z,8.95
2023-04-27T09:03:30.834Z,9.03
2023-04-27T09:06:35.889Z,9.14
2023-04-27T09:09:39.363Z,9.16
2023-04-27T09:12:41.473Z,9.14
2023-04-27T09:15:47.121Z,9.24
2023-04-27T09:18:52.296Z,9.27
2023-04-27T09:22:04.332Z,9.35
2023-04-27T09:25:08.130Z,9.50
2023-04-27T09:28:15.004Z,9.69
2023-04-27T09:31:17.763Z,9.70
2023-04-27T09:34:21.360Z,9.82
2023-04-27T09:37:23.488Z,9.74
2023-04-27T09:40:27.484Z,9.92
2023-04-27T09:43:29.577Z,9.84
2023-04-27T09:46:33.330Z,9.66
2023-04-27T09:49:36.764Z,9.65
2023-04-27T09:52:38.653Z,9.81
2023-04-27T09:55:45.975Z,9.83
2023-04-27T09:59:10.198Z,9.85
2023-04-27T10:02:24.873Z,10.06
2023-04-27T10:05:44.003Z,10.16
2023-04-27T10:08:47.873Z,10.28
2023-04-27T10:11:50.824Z,10.55
2023-04-27T10:14:53.998Z,10.57
2023-04-27T10:17:57.194Z,10.62
2023-04-27T10:21:14.128Z,10.62
2023-04-27T10:24:17.561Z,10.80
2023-04-27T10:27:21.203Z,10.93
2023-04-27T10:30:25.122Z,11.07
2023-04-27T10:33:30.777Z,11.19
2023-04-27T10:36:36.455Z,11.19
2023-04-27T10:39:48.616Z,11.28
2023-04-27T10:42:51.634Z,11.34
2023-04-27T10:45:54.742Z,11.36
2023-04-27T10:48:57.123Z,11.21
2023-04-27T10:52:01.290Z,11.30
2023-04-27T10:55:14.424Z,11.16
2023-04-27T10:58:26.702Z,11.16
2023-04-27T11:01:35.043Z,11.05
2023-04-27T11:04:39.453Z,11.06
2023-04-27T11:07:43.185Z,11.13
2023-04-27T11:10:47.767Z,11.30
2023-04-27T11:13:50.183Z,11.28
2023-04-27T11:16:52.812Z,11.05
2023-04-27T11:19:55.150Z,11.01
2023-04-27T11:22:58.735Z,10.89
2023-04-27T11:26:09.468Z,10.99
2023-04-27T11:29:12.770Z,11.09
2023-04-27T11:32:21.266Z,11.18
2023-04-27T11:35:33.065Z,11.28
2023-04-27T11:38:36.254Z,11.43
2023-04-27T11:41:38.142Z,11.46
2023-04-27T11:44:40.161Z,11.35
2023-04-27T11:47:46.896Z,11.45
2023-04-27T11:50:49.524Z,11.60
2023-04-27T11:53:52.965Z,11.74
2023-04-27T11:57:07.657Z,11.83
2023-04-27T12:00:12.530Z,11.91
2023-04-27T12:03:16.932Z,12.02
2023-04-27T12:06:32.796Z,12.18
2023-04-27T12:09:40.366Z,12.35
2023-04-27T12:12:42.520Z,12.32
2023-04-27T12:15:45.548Z,12.47
2023-04-27T12:18:47.701Z,12.63
2023-04-27T12:21:50.986Z,12.22
2023-04-27T12:24:54.604Z,12.25
2023-04-27T12:27:56.345Z,12.02
2023-04-27T12:30:58.376Z,12.09
2023-04-27T12:34:00.236Z,12.05
2023-04-27T12:37:04.327Z,12.00
2023-04-27T12:40:10.380Z,12.22
2023-04-27T12:43:13.246Z,12.26
2023-04-27T12:46:15.065Z,12.34
2023-04-27T12:49:17.677Z,12.35
2023-04-27T12:52:19.529Z,12.37
2023-04-27T12:55:32.905Z,12.40
2023-04-27T12:58:40.266Z,12.39
2023-04-27T13:01:43.518Z,12.35
2023-04-27T13:04:45.391Z,12.35
2023-04-27T13:07:47.420Z,12.50
2023-04-27T13:10:51.499Z,12.31
2023-04-27T13:13:53.466Z,12.22
2023-04-27T13:16:55.813Z,12.46
2023-04-27T13:20:00.242Z,12.42
2023-04-27T13:23:04.793Z,12.71
2023-04-27T13:26:10.581Z,12.64
2023-04-27T13:29:12.404Z,12.67
2023-04-27T13:32:16.845Z,13.01
2023-04-27T13:35:19.752Z,13.07
2023-04-27T13:38:21.614Z,13.03
2023-04-27T13:41:25.656Z,13.09
2023-04-27T13:44:27.370Z,12.98
2023-04-27T13:47:32.125Z,12.98
2023-04-27T13:50:35.206Z,13.14
2023-04-27T13:53:36.997Z,13.29
2023-04-27T13:56:40.619Z,13.48
2023-04-27T13:59:42.377Z,13.45
2023-04-27T14:02:45.321Z,13.46
2023-04-27T14:05:49.617Z,13.42
2023-04-27T14:08:55.761Z,13.53
2023-04-27T14:12:00.531Z,13.64
2023-04-27T14:15:02.518Z,13.55
2023-04-27T14:18:05.847Z,13.65
2023-04-27T14:21:07.767Z,13.85
2023-04-27T14:24:12.408Z,14.06
2023-04-27T14:27:15.719Z,14.21
2023-04-27T14:30:18.110Z,14.40
2023-04-27T14:33:19.900Z,14.59
2023-04-27T14:36:22.689Z,14.59
2023-04-27T14:39:24.590Z,14.37
2023-04-27T14:42:29.378Z,13.94
2023-04-27T14:45:43.622Z,13.68
2023-04-27T14:48:52.706Z,13.47
2023-04-27T14:51:56.566Z,13.39
2023-04-27T14:54:59.439Z,13.36
2023-04-27T14:58:02.757Z,13.31
2023-04-27T15:01:04.591Z,13.34
2023-04-27T15:04:10.732Z,13.47
2023-04-27T15:07:12.855Z,13.75
2023-04-27T15:10:16.502Z,13.99
2023-04-27T15:13:20.188Z,13.95
2023-04-27T15:16:24.945Z,13.97
2023-04-27T15:19:28.190Z,14.12
2023-04-27T15:22:29.967Z,14.24
2023-04-27T15:25:32.981Z,14.62
2023-04-27T15:28:36.386Z,14.95
2023-04-27T15:31:38.521Z,15.22
2023-04-27T15:34:40.929Z,15.38
2023-04-27T15:37:46.788Z,15.04
2023-04-27T15:40:48.569Z,15.19
2023-04-27T15:43:52.980Z,15.42
2023-04-27T15:46:55.081Z,15.47
2023-04-27T15:49:58.207Z,15.23
2023-04-27T15:53:00.273Z,15.23
2023-04-27T15:56:03.826Z,15.28
2023-04-27T15:59:06.956Z,15.03
2023-04-27T16:02:09.109Z,15.19
2023-04-27T16:05:13.544Z,15.18
2023-04-27T16:08:15.544Z,15.16
2023-04-27T16:11:17.418Z,15.12
2023-04-27T16:14:20.830Z,15.07
2023-04-27T16:17:22.862Z,15.11
2023-04-27T16:20:29.234Z,15.21
2023-04-27T16:23:31.166Z,15.44
2023-04-27T16:26:32.998Z,15.28
2023-04-27T16:29:38.197Z,15.51
2023-04-27T16:32:40.146Z,16.01
2023-04-27T16:35:44.394Z,16.18
2023-04-27T16:38:47.178Z,16.42
2023-04-27T16:41:49.564Z,16.35
2023-04-27T16:44:52.895Z,15.76
2023-04-27T16:47:57.086Z,16.03
2023-04-27T16:51:06.012Z,16.12
2023-04-27T16:54:08.807Z,16.16
2023-04-27T16:57:11.968Z,16.42
2023-04-27T17:00:16.080Z,16.38
2023-04-27T17:03:20.330Z,15.97
2023-04-27T17:06:22.663Z,15.95
2023-04-27T17:09:24.713Z,16.13
2023-04-27T17:12:30.184Z,16.15
2023-04-27T17:15:33.835Z,16.47
2023-04-27T17:18:35.564Z,16.44
2023-04-27T17:21:37.340Z,16.89
2023-04-27T17:24:39.373Z,16.65
2023-04-27T17:27:42.409Z,16.61
2023-04-27T17:30:48.336Z,16.44
2023-04-27T17:33:50.337Z,16.04
2023-04-27T17:36:52.491Z,16.10
2023-04-27T17:39:54.502Z,15.67
2023-04-27T17:42:59.853Z,15.48
2023-04-27T17:46:09.966Z,15.05
2023-04-27T17:49:17.233Z,14.55
2023-04-27T17:52:20.261Z,14.14
2023-04-27T17:55:22.901Z,13.87
2023-04-27T17:58:24.849Z,13.33
2023-04-27T18:01:31.602Z,13.09
2023-04-27T18:04:33.538Z,12.67
2023-04-27T18:07:36.563Z,12.41
2023-04-27T18:10:39.661Z,12.26
2023-04-27T18:13:42.746Z,12.36
2023-04-27T18:16:46.812Z,12.31
2023-04-27T18:19:57.972Z,12.25
2023-04-27T18:23:06.917Z,12.47
2023-04-27T18:26:14.159Z,12.40
2023-04-27T18:29:17.310Z,12.28
2023-04-27T18:32:22.520Z,12.23
2023-04-27T18:35:24.427Z,12.12
2023-04-27T18:38:29.697Z,11.84
2023-04-27T18:41:31.941Z,11.77
2023-04-27T18:44:37.519Z,11.46
2023-04-27T18:47:41.222Z,11.18
2023-04-27T18:50:44.932Z,10.31
2023-04-27T18:53:48.456Z,10.20
2023-04-27T18:56:50.633Z,10.21
2023-04-27T18:59:52.593Z,10.47
2023-04-27T19:02:56.255Z,10.32
2023-04-27T19:05:58.477Z,10.06
2023-04-27T19:09:00.915Z,9.49
2023-04-27T19:12:03.728Z,9.16
2023-04-27T19:15:07.628Z,8.62
2023-04-27T19:18:11.826Z,8.43
2023-04-27T19:21:14.318Z,8.36
2023-04-27T19:24:16.679Z,8.01
2023-04-27T19:27:19.039Z,7.76
2023-04-27T19:30:30.388Z,7.72
2023-04-27T19:33:33.620Z,8.02
2023-04-27T19:36:36.847Z,8.33
2023-04-27T19:39:40.899Z,7.92
2023-04-27T19:42:43.041Z,7.75
2023-04-27T19:45:45.285Z,7.26
2023-04-27T19:48:49.351Z,7.10
2023-04-27T19:51:53.615Z,7.00
2023-04-27T19:54:55.645Z,6.96
2023-04-27T19:57:59.748Z,7.06
2023-04-27T20:01:01.860Z,7.23
2023-04-27T20:04:05.808Z,7.59
2023-04-27T20:07:07.742Z,7.77
2023-04-27T20:10:09.596Z,7.81
2023-04-27T20:13:12.930Z,7.58
2023-04-27T20:16:22.058Z,7.82
2023-04-27T20:19:25.257Z,7.97
2023-04-27T20:22:27.270Z,7.56
2023-04-27T20:25:30.714Z,7.20
2023-04-27T20:28:32.486Z,7.22
2023-04-27T20:31:34.585Z,6.98
2023-04-27T20:34:40.348Z,6.90
2023-04-27T20:37:45.033Z,6.95
2023-04-27T20:40:46.996Z,7.16
2023-04-27T20:43:50.045Z,7.40
2023-04-27T20:46:51.797Z,7.43
2023-04-27T20:49:57.497Z,7.34
2023-04-27T20:52:59.273Z,7.09
2023-04-27T20:56:01.179Z,6.98
2023-04-27T20:59:03.224Z,6.96
2023-04-27T21:02:05.237Z,7.08
2023-04-27T21:05:12.041Z,7.32
2023-04-27T21:08:14.494Z,7.43
2023-04-27T21:11:18.500Z,7.06
2023-04-27T21:14:20.295Z,6.68
2023-04-27T21:17:25.371Z,6.62
2023-04-27T21:20:28.601Z,6.84
2023-04-27T21:23:33.875Z,7.00
2023-04-27T21:26:36.072Z,6.93
2023-04-27T21:29:40.232Z,6.16
2023-04-27T21:32:44.955Z,6.23
2023-04-27T21:35:48.201Z,6.08
2023-04-27T21:38:50.249Z,6.14
2023-04-27T21:41:52.909Z,6.36
2023-04-27T21:44:56.941Z,6.58
2023-04-27T21:48:02.339Z,6.83
2023-04-27T21:51:07.091Z,6.85
2023-04-27T21:54:09.100Z,6.87
2023-04-27T21:57:11.104Z,6.52
2023-04-27T22:00:14.612Z,6.23
2023-04-27T22:03:16.533Z,6.13
2023-04-27T22:06:21.835Z,6.17
2023-04-27T22:09:24.978Z,6.34
2023-04-27T22:12:26.775Z,6.45
2023-04-27T22:15:28.727Z,6.59
2023-04-27T22:18:30.896Z,6.22
2023-04-27T22:21:36.559Z,5.96
2023-04-27T22:24:39.367Z,5.82
2023-04-27T22:27:44.827Z,5.77
2023-04-27T22:30:48.875Z,5.75
2023-04-27T22:33:51.055Z,5.73
2023-04-27T22:36:57.771Z,5.52
2023-04-27T22:40:00.564Z,5.32
2023-04-27T22:43:02.422Z,5.34
2023-04-27T22:46:05.522Z,5.68
2023-04-27T22:49:07.625Z,5.80
2023-04-27T22:52:11.354Z,5.93
2023-04-27T22:55:14.402Z,5.97
2023-04-27T22:58:16.577Z,5.93
2023-04-27T23:01:18.793Z,5.55
2023-04-27T23:04:21.379Z,5.33
2023-04-27T23:07:25.220Z,5.28
2023-04-27T23:10:27.049Z,5.34
2023-04-27T23:13:28.750Z,5.50
2023-04-27T23:16:30.532Z,5.78
2023-04-27T23:19:32.802Z,5.91
2023-04-27T23:22:36.668Z,5.95
2023-04-27T23:25:39.900Z,5.87
2023-04-27T23:28:42.876Z,5.95
2023-04-27T23:31:44.910Z,5.85
2023-04-27T23:34:47.408Z,5.96
2023-04-27T23:37:53.099Z,5.96
2023-04-27T23:40:56.174Z,5.98
2023-04-27T23:43:57.960Z,5.58
2023-04-27T23:47:02.051Z,5.17
2023-04-27T23:50:04.512Z,5.07
2023-04-27T23:53:11.474Z,5.09
2023-04-27T23:56:18.754Z,5.20
2023-04-27T23:59:20.758Z,5.25
